Time;durP1;ratioP1;P1;durP2;ratioP2;P2;SDS_P1;SDS_P2;PMS_P1;PMS_P2;Temp;Humidity;BMP_temperature;BMP_pressure;BME280_temperature;BME280_humidity;BME280_pressure;Samples;Min_cycle;Max_cycle;Signal;HPM_P1;HPM_P2
2023/10/11 00:03:17;;;;;;;7.65;3.63;;;;;;;16.54;100.00;101442.25;5110407;28;20060;-36
2023/10/11 00:05:44;;;;;;;10.98;3.38;;;;;;;16.53;100.00;101439.78;5110584;28;20034;-36
2023/10/11 00:08:18;;;;;;;7.40;3.55;;;;;;;16.47;100.00;101433.44;5106556;28;20073;-36
2023/10/11 00:10:53;;;;;;;4.53;3.03;;;;;;;16.42;100.00;101431.47;5097193;28;20024;-36
2023/10/11 00:13:20;;;;;;;7.28;3.80;;;;;;;16.47;100.00;101444.38;5096855;28;20111;-36
2023/10/11 00:15:50;;;;;;;5.82;2.97;;;;;;;16.44;99.95;101450.31;5096246;28;20024;-36
2023/10/11 00:18:26;;;;;;;6.75;3.60;;;;;;;16.39;100.00;101437.44;5096095;28;20020;-36
2023/10/11 00:20:52;;;;;;;5.87;3.53;;;;;;;16.45;100.00;101436.44;5097269;28;20062;-36
2023/10/11 00:23:22;;;;;;;;;;;;;;;16.44;100.00;101440.22;5096509;28;20027;-36
2023/10/11 00:26:00;;;;;;;7.93;3.42;;;;;;;16.36;99.52;101434.41;5096233;28;20264;-36
2023/10/11 00:28:26;;;;;;;5.38;3.20;;;;;;;16.35;99.58;101438.22;5097020;28;20028;-36
2023/10/11 00:30:58;;;;;;;5.80;3.33;;;;;;;16.33;100.00;101438.47;5096608;28;20026;-37
2023/10/11 00:33:24;;;;;;;7.03;3.53;;;;;;;16.34;100.00;101442.84;5096088;28;20047;-36
2023/10/11 00:35:50;;;;;;;;;;;;;;;16.38;100.00;101438.53;5096494;28;20107;-36
2023/10/11 00:38:21;;;;;;;5.40;2.87;;;;;;;16.34;99.70;101433.81;5095869;28;19908;-36
2023/10/11 00:40:49;;;;;;;7.45;3.30;;;;;;;16.34;99.64;101429.19;5095580;28;20016;-45
2023/10/11 00:43:21;;;;;;;6.95;3.90;;;;;;;16.33;100.00;101426.72;5096313;28;20016;-36
2023/10/11 00:45:48;;;;;;;5.20;3.15;;;;;;;16.31;100.00;101427.00;5096068;28;20059;-36
2023/10/11 00:48:19;;;;;;;6.70;3.55;;;;;;;16.30;100.00;101428.09;5095734;28;20077;-36
2023/10/11 00:50:45;;;;;;;6.07;3.95;;;;;;;16.31;100.00;101434.34;5095187;28;20027;-36
2023/10/11 00:53:12;;;;;;;;;;;;;;;16.33;100.00;101432.19;5096136;28;20028;-36
2023/10/11 00:55:38;;;;;;;;;;;;;;;16.32;100.00;101431.38;5096018;28;20362;-36
2023/10/11 00:58:03;;;;;;;7.90;3.50;;;;;;;16.27;100.00;101425.03;5095336;28;19912;-36
2023/10/11 01:00:35;;;;;;;;;;;;;;;16.30;100.00;101429.94;5095927;28;20035;-36
2023/10/11 01:03:01;;;;;;;5.60;3.72;;;;;;;16.17;100.00;101412.09;5095590;28;19908;-36
2023/10/11 01:05:26;;;;;;;;;;;;;;;16.25;100.00;101421.72;5096337;28;20477;-36
2023/10/11 01:07:54;;;;;;;4.60;3.03;;;;;;;16.17;100.00;101423.81;5095767;28;20297;-36
2023/10/11 01:10:23;;;;;;;5.43;3.30;;;;;;;16.10;100.00;101412.25;5095476;28;20028;-36
2023/10/11 01:12:49;;;;;;;6.25;3.33;;;;;;;16.14;100.00;101426.22;5095423;28;20113;-36
2023/10/11 01:15:19;;;;;;;8.10;3.90;;;;;;;16.09;100.00;101426.97;5095924;28;20365;-36
2023/10/11 01:17:44;;;;;;;4.88;3.40;;;;;;;16.07;100.00;101417.41;5095799;28;20055;-36
2023/10/11 01:20:13;;;;;;;;;;;;;;;16.11;100.00;101430.31;5095024;28;20097;-36
2023/10/11 01:22:42;;;;;;;7.35;3.28;;;;;;;16.04;100.00;101413.28;5095551;28;19911;-36
2023/10/11 01:25:08;;;;;;;6.25;3.53;;;;;;;15.99;100.00;101421.41;5095569;28;20020;-36
2023/10/11 01:27:37;;;;;;;6.65;3.30;;;;;;;16.01;100.00;101418.44;5095102;28;20111;-36
2023/10/11 01:30:09;;;;;;;4.95;3.13;;;;;;;15.97;100.00;101412.66;5095332;28;20133;-36
2023/10/11 01:32:37;;;;;;;7.22;3.60;;;;;;;15.90;100.00;101412.00;5095589;28;20420;-36
2023/10/11 01:35:04;;;;;;;6.65;3.05;;;;;;;15.90;100.00;101422.91;5095823;28;20051;-36
2023/10/11 01:37:36;;;;;;;6.43;3.83;;;;;;;15.84;100.00;101402.09;5094898;28;20016;-36
2023/10/11 01:40:07;;;;;;;6.88;4.00;;;;;;;15.87;100.00;101412.53;5095427;28;20020;-36
2023/10/11 01:42:33;;;;;;;5.40;3.15;;;;;;;15.80;100.00;101417.31;5095150;28;20052;-36
2023/10/11 01:45:00;;;;;;;7.05;3.95;;;;;;;15.81;100.00;101406.19;5095066;28;20032;-37
2023/10/11 01:47:25;;;;;;;5.57;3.83;;;;;;;15.77;100.00;101405.03;5094751;28;20028;-36
2023/10/11 01:49:52;;;;;;;6.20;3.45;;;;;;;15.72;100.00;101393.22;5095484;28;20059;-36
2023/10/11 01:52:18;;;;;;;9.30;3.88;;;;;;;15.76;100.00;101399.81;5094631;28;20427;-36
2023/10/11 01:54:43;;;;;;;8.20;3.53;;;;;;;15.76;100.00;101399.81;5095232;28;20059;-36
2023/10/11 01:57:10;;;;;;;;;;;;;;;15.81;100.00;101391.69;5094941;28;20043;-36
2023/10/11 01:59:35;;;;;;;5.07;3.42;;;;;;;15.74;100.00;101391.06;5094825;28;19961;-36
2023/10/11 02:02:03;;;;;;;7.75;3.80;;;;;;;15.70;100.00;101380.66;5095088;28;20020;-36
2023/10/11 02:04:29;;;;;;;8.02;3.63;;;;;;;15.63;100.00;101365.53;5094341;28;20103;-36
2023/10/11 02:06:55;;;;;;;5.43;3.40;;;;;;;15.62;100.00;101362.00;5094725;28;20428;-36
2023/10/11 02:09:21;;;;;;;;;;;;;;;15.72;100.00;101374.16;5094793;28;20020;-36
2023/10/11 02:11:51;;;;;;;6.43;3.63;;;;;;;15.62;100.00;101375.63;5094921;28;20297;-36
2023/10/11 02:14:18;;;;;;;8.60;3.75;;;;;;;15.60;100.00;101374.22;5094229;28;20020;-37
2023/10/11 02:16:44;;;;;;;5.40;3.30;;;;;;;15.50;100.00;101361.25;5094754;28;20024;-36
2023/10/11 02:19:09;;;;;;;5.82;3.50;;;;;;;15.57;100.00;101372.00;5094201;28;20170;-36
2023/10/11 02:21:36;;;;;;;;;;;;;;;15.59;100.00;101361.66;5094627;28;20482;-36
2023/10/11 02:24:04;;;;;;;6.95;4.15;;;;;;;15.48;100.00;101355.25;5093819;28;20045;-36
2023/10/11 02:26:31;;;;;;;8.15;4.10;;;;;;;15.45;100.00;101358.47;5094128;28;20042;-36
2023/10/11 02:29:00;;;;;;;7.30;3.67;;;;;;;15.42;100.00;101365.25;5093980;28;20020;-36
2023/10/11 02:31:31;;;;;;;6.18;3.30;;;;;;;15.42;100.00;101361.69;5093524;28;20027;-37
2023/10/11 02:34:06;;;;;;;8.50;3.35;;;;;;;15.42;100.00;101361.69;5093939;28;20031;-36
2023/10/11 02:36:35;;;;;;;8.35;4.18;;;;;;;15.39;100.00;101364.94;5094173;28;20027;-36
2023/10/11 02:39:05;;;;;;;6.53;3.90;;;;;;;15.40;100.00;101363.84;5094378;28;20030;-36
2023/10/11 02:41:31;;;;;;;7.00;3.60;;;;;;;15.36;100.00;101370.88;5093573;28;20098;-36
2023/10/11 02:43:57;;;;;;;;;;;;;;;15.38;100.00;101366.00;5093921;28;20517;-36
2023/10/11 02:46:24;;;;;;;8.65;3.88;;;;;;;15.24;100.00;101351.09;5093848;28;19957;-36
2023/10/11 02:48:54;;;;;;;7.93;4.25;;;;;;;15.32;100.00;101361.53;5093732;28;20028;-36
2023/10/11 02:51:24;;;;;;;10.00;3.95;;;;;;;15.29;100.00;101356.59;5093728;28;20452;-36
2023/10/11 02:53:53;;;;;;;8.10;4.03;;;;;;;15.19;100.00;101358.09;5093514;28;20039;-36
2023/10/11 02:56:18;;;;;;;7.47;3.88;;;;;;;15.20;100.00;101359.75;5093382;28;20028;-36
2023/10/11 02:58:46;;;;;;;9.40;4.05;;;;;;;15.27;100.00;101361.47;5094055;28;20035;-36
2023/10/11 03:01:15;;;;;;;7.05;3.80;;;;;;;15.21;100.00;101357.84;5093951;28;20036;-36
2023/10/11 03:03:44;;;;;;;6.80;3.95;;;;;;;15.20;100.00;101351.56;5093621;28;20027;-36
2023/10/11 03:06:10;;;;;;;4.60;3.60;;;;;;;15.12;100.00;101346.53;5093019;28;20028;-36
2023/10/11 03:08:37;;;;;;;;;;;;;;;15.18;100.00;101339.28;5093795;28;20028;-36
2023/10/11 03:11:09;;;;;;;11.63;5.30;;;;;;;15.05;100.00;101345.91;5093285;28;20391;-36
2023/10/11 03:13:43;;;;;;;7.10;3.85;;;;;;;15.03;100.00;101345.31;5093876;28;20030;-36
2023/10/11 03:16:16;;;;;;;5.97;3.42;;;;;;;14.98;100.00;101341.66;5092238;28;20032;-36
2023/10/11 03:18:42;;;;;;;6.70;4.18;;;;;;;14.90;100.00;101321.97;5093162;28;20525;-36
2023/10/11 03:21:19;;;;;;;8.27;4.53;;;;;;;14.91;100.00;101334.50;5094048;28;20020;-36
2023/10/11 03:23:54;;;;;;;6.97;4.53;;;;;;;14.86;100.00;101339.88;5094335;28;20051;-36
2023/10/11 03:26:30;;;;;;;7.25;3.85;;;;;;;14.85;100.00;101337.41;5093699;28;20032;-36
2023/10/11 03:28:57;;;;;;;6.95;4.72;;;;;;;14.77;100.00;101330.47;5093145;28;20027;-36
2023/10/11 03:31:31;;;;;;;6.88;4.05;;;;;;;14.81;100.00;101337.06;5093707;28;20038;-36
2023/10/11 03:34:10;;;;;;;7.05;3.95;;;;;;;14.83;100.00;101348.53;5093664;28;20030;-36
2023/10/11 03:36:43;;;;;;;7.20;4.18;;;;;;;14.83;100.00;101339.53;5093820;28;20329;-37
2023/10/11 03:39:09;;;;;;;8.23;4.18;;;;;;;14.72;100.00;101337.72;5093855;28;20044;-36
2023/10/11 03:41:47;;;;;;;4.95;3.72;;;;;;;14.76;100.00;101347.03;5093319;28;20052;-36
2023/10/11 03:44:17;;;;;;;9.15;4.53;;;;;;;14.72;100.00;101335.00;5095292;28;20367;-36
2023/10/11 03:46:47;;;;;;;7.05;4.15;;;;;;;14.73;100.00;101332.03;5097329;28;20073;-36
2023/10/11 03:51:43;;;;;;;7.93;4.75;;;;;;;14.74;100.00;101327.41;5097099;28;20032;-36
2023/10/11 03:54:24;;;;;;;8.15;4.38;;;;;;;14.75;100.00;101326.34;5096693;28;20102;-36
2023/10/11 03:56:53;;;;;;;6.95;4.30;;;;;;;14.70;100.00;101331.72;5097588;28;20126;-38
2023/10/11 03:59:28;;;;;;;6.50;4.70;;;;;;;14.63;100.00;101321.78;5097708;28;20024;-36
2023/10/11 04:01:54;;;;;;;10.07;4.82;;;;;;;14.59;100.00;101320.66;5097099;28;20027;-36
2023/10/11 04:04:22;;;;;;;;;;;;;;;14.67;100.00;101320.22;5097178;28;20115;-36
2023/10/11 04:06:51;;;;;;;8.23;4.63;;;;;;;14.56;100.00;101326.56;5096433;28;19904;-35
2023/10/11 04:09:31;;;;;;;7.13;4.20;;;;;;;14.57;100.00;101324.69;5096631;28;20023;-35
2023/10/11 04:12:03;;;;;;;10.80;5.10;;;;;;;14.56;100.00;101323.84;5097419;28;20325;-35
2023/10/11 04:14:47;;;;;;;6.13;4.63;;;;;;;14.55;100.00;101308.59;5097415;28;20048;-36
2023/10/11 04:19:48;;;;;;;8.27;4.53;;;;;;;14.52;100.00;101309.09;5096796;28;20444;-35
2023/10/11 04:22:17;;;;;;;8.15;4.68;;;;;;;14.51;100.00;101312.88;5096174;28;20020;-35
2023/10/11 04:24:45;;;;;;;6.97;4.38;;;;;;;14.52;100.00;101298.19;5097117;28;20367;-35
2023/10/11 04:29:47;;;;;;;6.65;4.57;;;;;;;14.51;100.00;101295.72;5096914;28;20036;-35
2023/10/11 04:32:19;;;;;;;9.18;4.63;;;;;;;14.47;100.00;101295.34;5095935;28;20059;-35
2023/10/11 04:34:48;;;;;;;8.02;5.13;;;;;;;14.42;100.00;101295.28;5096752;28;20368;-35
2023/10/11 04:37:27;;;;;;;6.60;4.47;;;;;;;14.34;100.00;101291.03;5096902;28;20341;-35
2023/10/11 04:39:59;;;;;;;7.47;4.85;;;;;;;14.40;100.00;101302.88;5095986;28;20020;-35
2023/10/11 04:42:28;;;;;;;6.30;4.50;;;;;;;14.33;100.00;101291.28;5096296;28;20016;-36
2023/10/11 04:44:57;;;;;;;7.90;4.68;;;;;;;14.41;100.00;101304.50;5095495;28;20027;-36
2023/10/11 04:47:27;;;;;;;7.55;4.47;;;;;;;14.41;100.00;101301.78;5096068;28;20020;-36
2023/10/11 04:49:52;;;;;;;9.10;4.80;;;;;;;14.37;100.00;101306.06;5095666;28;20044;-36
2023/10/11 04:52:25;;;;;;;9.35;4.93;;;;;;;14.37;100.00;101315.06;5096087;28;20113;-35
2023/10/11 04:54:54;;;;;;;6.50;4.28;;;;;;;14.36;100.00;101313.41;5096044;28;20028;-35
2023/10/11 04:57:24;;;;;;;8.35;4.72;;;;;;;14.36;100.00;101309.88;5095554;28;20127;-35
2023/10/11 04:59:59;;;;;;;11.38;4.70;;;;;;;14.30;100.00;101305.38;5096201;28;20030;-35
2023/10/11 05:02:32;;;;;;;6.30;4.60;;;;;;;14.38;100.00;101313.97;5095920;28;20020;-35
2023/10/11 05:04:58;;;;;;;8.63;4.57;;;;;;;14.37;100.00;101311.50;5095587;28;20052;-35
2023/10/11 05:07:25;;;;;;;7.15;4.68;;;;;;;14.37;100.00;101306.06;5095541;28;20035;-35
2023/10/11 05:10:29;;;;;;;6.63;4.78;;;;;;;14.37;100.00;101311.50;5095466;28;20063;-35
2023/10/11 05:12:44;;;;;;;6.43;4.47;;;;;;;14.38;100.00;101315.88;5095365;28;20123;-36
2023/10/11 05:15:10;;;;;;;8.05;4.90;;;;;;;14.38;100.00;101315.88;5095382;28;20024;-35
2023/10/11 05:17:39;;;;;;;9.82;4.80;;;;;;;14.41;100.00;101312.66;5095831;28;20026;-35
2023/10/11 05:22:55;;;;;;;6.07;4.55;;;;;;;14.38;100.00;101334.91;5094894;28;20024;-35
2023/10/11 05:28:44;;;;;;;8.23;5.03;;;;;;;14.40;100.00;101336.34;5094895;28;20043;-35
2023/10/11 05:31:19;;;;;;;7.70;5.13;;;;;;;14.36;100.00;101329.72;5093764;28;20452;-37
2023/10/11 05:33:59;;;;;;;9.27;4.72;;;;;;;14.34;100.00;101336.47;5095335;28;20505;-36
2023/10/11 05:52:55;;;;;;;7.93;5.38;;;;;;;14.22;100.00;101319.38;5094627;28;20391;-36
2023/10/11 05:55:22;;;;;;;7.25;4.80;;;;;;;14.20;100.00;101329.66;5094819;28;20035;-36
2023/10/11 05:57:48;;;;;;;6.85;5.40;;;;;;;14.29;100.00;101341.81;5095499;28;20132;-36
2023/10/11 06:00:25;;;;;;;9.07;5.90;;;;;;;14.17;100.00;101344.59;5094486;28;20027;-35
2023/10/11 06:02:51;;;;;;;;;;;;;;;14.30;100.00;101344.31;5094847;28;20470;-35
2023/10/11 06:05:18;;;;;;;12.68;6.50;;;;;;;14.25;100.00;101335.22;5094149;28;19911;-35
2023/10/11 06:07:43;;;;;;;;;;;;;;;14.29;100.00;101339.91;5095069;28;20016;-37
2023/10/11 06:10:09;;;;;;;8.73;5.93;;;;;;;14.23;100.00;101332.75;5094836;28;19915;-36
2023/10/11 06:12:35;;;;;;;12.40;5.78;;;;;;;14.28;100.00;101342.88;5094565;28;20069;-36
2023/10/11 06:15:05;;;;;;;;;;;;;;;14.33;100.00;101327.47;5095507;28;20016;-36
2023/10/11 06:17:41;;;;;;;9.25;6.10;;;;;;;14.30;100.00;101332.56;5093788;28;19908;-36
2023/10/11 06:20:26;;;;;;;10.05;6.10;;;;;;;14.33;100.00;101329.38;5094755;28;20099;-36
2023/10/11 06:22:52;;;;;;;10.13;5.95;;;;;;;14.35;100.00;101327.25;5094736;28;20073;-36
2023/10/11 06:25:49;;;;;;;9.50;5.60;;;;;;;14.32;100.00;101314.13;5094235;28;20016;-36
2023/10/11 06:28:13;;;;;;;9.32;5.47;;;;;;;14.37;100.00;101330.56;5093942;28;20043;-37
2023/10/11 06:30:40;;;;;;;8.68;5.95;;;;;;;14.31;100.00;101301.63;5094178;28;20031;-36
2023/10/11 06:33:07;;;;;;;14.38;6.57;;;;;;;14.38;100.00;101329.47;5093823;28;20028;-37
2023/10/11 06:35:42;;;;;;;8.73;6.00;;;;;;;14.45;100.00;101335.59;5093842;28;20027;-36
2023/10/11 06:38:07;;;;;;;7.65;5.53;;;;;;;14.47;100.00;101330.72;5094495;28;20027;-36
2023/10/11 06:40:54;;;;;;;8.00;5.77;;;;;;;14.54;100.00;101330.59;5093960;28;20020;-36
2023/10/11 06:43:20;;;;;;;13.07;6.27;;;;;;;14.57;100.00;101341.81;5094525;28;20254;-36
2023/10/11 06:45:45;;;;;;;;;;;;;;;14.65;100.00;101341.44;5094631;28;20041;-36
2023/10/11 06:48:14;;;;;;;7.63;6.15;;;;;;;14.65;100.00;101336.00;5093846;28;20342;-36
2023/10/11 06:50:40;;;;;;;13.30;6.18;;;;;;;14.65;100.00;101336.00;5093561;28;20039;-36
2023/10/11 06:53:07;;;;;;;8.32;6.35;;;;;;;14.67;100.00;101338.47;5093740;28;20093;-36
2023/10/11 06:55:34;;;;;;;9.75;6.25;;;;;;;14.66;100.00;101334.09;5094117;28;20359;-36
2023/10/11 06:58:03;;;;;;;9.15;6.15;;;;;;;14.72;100.00;101329.56;5093587;28;20415;-36
2023/10/11 07:00:29;;;;;;;11.50;6.07;;;;;;;14.73;100.00;101331.19;5094268;28;20032;-36
2023/10/11 07:05:47;;;;;;;9.65;6.35;;;;;;;14.87;100.00;101340.69;5093690;28;20067;-36
2023/10/11 07:08:17;;;;;;;11.77;6.15;;;;;;;14.94;100.00;101354.97;5093606;28;20024;-36
2023/10/11 07:11:40;;;;;;;11.57;6.28;;;;;;;15.01;100.00;101363.78;5093581;28;20020;-35
2023/10/11 07:16:27;;;;;;;11.00;6.63;;;;;;;15.18;100.00;101378.25;5093370;28;20121;-37
2023/10/11 07:18:54;;;;;;;9.35;6.30;;;;;;;15.22;100.00;101370.38;5094925;28;20379;-37
2023/10/11 07:21:25;;;;;;;11.60;6.60;;;;;;;15.35;100.00;101388.31;5097901;28;20420;-36
2023/10/11 07:28:53;;;;;;;9.98;6.30;;;;;;;15.59;100.00;101389.75;5098151;28;20036;-36
2023/10/11 07:31:19;;;;;;;;;;;;;;;15.71;100.00;101392.38;5097956;28;20074;-36
2023/10/11 07:33:50;;;;;;;8.82;6.47;;;;;;;15.77;100.00;101399.56;5097697;28;19904;-36
2023/10/11 07:36:19;;;;;;;14.50;7.18;;;;;;;15.82;100.00;101393.38;5097056;28;20081;-37
2023/10/11 07:38:56;;;;;;;12.15;5.80;;;;;;;15.88;100.00;101382.25;5096986;28;20016;-36
2023/10/11 07:41:30;;;;;;;12.85;6.07;;;;;;;15.92;100.00;101366.22;5097279;28;20016;-36
2023/10/11 07:43:56;;;;;;;10.98;6.95;;;;;;;16.02;100.00;101374.53;5097527;28;20016;-36
2023/10/11 07:46:22;;;;;;;;;;;;;;;16.12;100.00;101371.91;5097615;28;20038;-36
2023/10/11 07:48:48;;;;;;;9.13;6.28;;;;;;;16.17;100.00;101377.44;5097125;28;19908;-37
2023/10/11 07:51:13;;;;;;;;;;;;;;;16.26;100.00;101375.09;5097851;28;20027;-36
2023/10/11 07:53:46;;;;;;;10.38;6.88;;;;;;;16.30;100.00;101383.56;5097017;28;19908;-36
2023/10/11 07:56:15;;;;;;;9.65;6.82;;;;;;;16.39;100.00;101382.03;5096763;28;20020;-36
2023/10/11 07:58:45;;;;;;;9.77;6.72;;;;;;;16.43;100.00;101380.44;5097221;28;20048;-36
2023/10/11 08:03:56;;;;;;;11.07;6.75;;;;;;;16.53;100.00;101388.72;5097424;28;20079;-36
2023/10/11 08:06:25;;;;;;;12.10;6.75;;;;;;;16.53;100.00;101377.81;5096785;28;20024;-36
2023/10/11 08:09:00;;;;;;;11.18;6.45;;;;;;;16.49;100.00;101376.69;5096726;28;20512;-36
2023/10/11 08:11:36;;;;;;;10.05;5.97;;;;;;;16.44;100.00;101379.34;5097016;28;20051;-36
2023/10/11 08:14:03;;;;;;;9.88;6.40;;;;;;;16.38;100.00;101383.94;5097496;28;20095;-36
2023/10/11 08:16:33;;;;;;;10.27;6.43;;;;;;;16.37;100.00;101382.28;5096333;28;20620;-36
2023/10/11 08:18:59;;;;;;;8.73;6.80;;;;;;;16.35;100.00;101381.75;5096210;28;20047;-36
2023/10/11 08:21:24;;;;;;;;;;;;;;;16.43;100.00;101388.63;5096970;28;20515;-36
2023/10/11 08:23:50;;;;;;;10.55;6.78;;;;;;;16.38;100.00;101381.22;5096438;28;19904;-36
2023/10/11 08:26:17;;;;;;;11.00;6.22;;;;;;;16.43;100.00;101394.91;5096414;28;20073;-36
2023/10/11 08:28:48;;;;;;;13.32;6.97;;;;;;;16.50;100.00;101396.63;5097096;28;20032;-36
2023/10/11 08:31:26;;;;;;;11.52;7.55;;;;;;;16.46;100.00;101383.50;5096667;28;20043;-36
2023/10/11 08:33:53;;;;;;;10.75;6.97;;;;;;;16.65;100.00;101397.59;5096198;28;20462;-36
2023/10/11 08:36:19;;;;;;;9.95;6.38;;;;;;;16.75;100.00;101401.56;5096760;28;20028;-37
2023/10/11 08:38:44;;;;;;;;;;;;;;;16.86;100.00;101395.91;5096216;28;20020;-36
2023/10/11 08:41:09;;;;;;;16.07;7.50;;;;;;;16.93;100.00;101399.28;5096108;28;19961;-36
2023/10/11 08:43:36;;;;;;;;;;;;;;;17.09;100.00;101404.88;5096145;28;20270;-36
2023/10/11 08:46:05;;;;;;;14.45;7.40;;;;;;;17.13;100.00;101415.00;5096802;28;20314;-36
2023/10/11 08:48:38;;;;;;;12.50;7.53;;;;;;;17.14;100.00;101415.84;5096199;28;20089;-36
2023/10/11 08:51:10;;;;;;;10.07;7.28;;;;;;;17.15;100.00;101409.28;5095923;28;20024;-36
2023/10/11 08:53:37;;;;;;;14.90;7.82;;;;;;;17.19;100.00;101413.97;5095875;28;20024;-36
2023/10/11 08:56:03;;;;;;;13.55;7.80;;;;;;;17.10;100.00;101403.78;5095583;28;20032;-36
2023/10/11 08:58:28;;;;;;;;;;;;;;;17.21;100.00;101417.25;5095891;28;20054;-36
2023/10/11 09:00:58;;;;;;;13.75;8.35;;;;;;;17.12;100.00;101413.34;5095714;28;19908;-36
2023/10/11 09:03:26;;;;;;;12.10;8.63;;;;;;;17.09;100.00;101424.81;5095864;28;20020;-36
2023/10/11 09:05:58;;;;;;;13.20;9.10;;;;;;;17.06;100.00;101424.50;5095622;28;20027;-36
2023/10/11 09:08:31;;;;;;;15.30;8.95;;;;;;;17.05;100.00;101431.88;5095538;28;20028;-36
2023/10/11 09:11:06;;;;;;;16.48;9.75;;;;;;;16.95;100.00;101415.41;5095558;28;20103;-36
2023/10/11 09:13:36;;;;;;;12.80;9.10;;;;;;;16.97;100.00;101437.81;5095466;28;20081;-36
2023/10/11 09:16:08;;;;;;;15.65;11.40;;;;;;;16.86;100.00;101406.84;5095715;28;20103;-36
2023/10/11 09:18:34;;;;;;;16.23;11.70;;;;;;;16.92;100.00;101418.63;5095875;28;20023;-36
2023/10/11 09:21:09;;;;;;;17.75;10.50;;;;;;;16.95;100.00;101418.13;5095655;28;20031;-36
2023/10/11 09:23:34;;;;;;;14.80;11.13;;;;;;;16.96;100.00;101414.31;5095557;28;20027;-36
2023/10/11 09:26:00;;;;;;;;;;;;;;;17.02;100.00;101418.72;5096490;28;20352;-36
2023/10/11 09:28:33;;;;;;;16.25;11.82;;;;;;;16.95;100.00;101421.69;5095144;28;19908;-36
2023/10/11 09:31:12;;;;;;;16.35;11.18;;;;;;;16.94;100.00;101420.03;5096005;28;20042;-36
2023/10/11 09:33:49;;;;;;;19.38;11.40;;;;;;;16.93;100.00;101417.53;5095587;28;20107;-36
2023/10/11 09:36:19;;;;;;;17.55;11.55;;;;;;;16.96;100.00;101427.97;5095006;28;20035;-36
2023/10/11 09:38:45;;;;;;;15.70;12.25;;;;;;;16.93;100.00;101434.78;5094878;28;20019;-36
2023/10/11 09:41:14;;;;;;;14.23;11.90;;;;;;;16.85;100.00;101421.59;5093847;28;20023;-36
2023/10/11 09:43:43;;;;;;;21.83;13.75;;;;;;;16.90;100.00;101427.09;5094926;28;20045;-36
2023/10/11 09:46:11;;;;;;;19.80;13.18;;;;;;;16.88;100.00;101425.69;5094872;28;20462;-36
2023/10/11 09:48:38;;;;;;;18.67;13.38;;;;;;;16.91;100.00;101427.91;5094749;28;20024;-36
2023/10/11 09:51:17;;;;;;;21.30;14.18;;;;;;;16.94;100.00;101433.69;5095135;28;20052;-36
2023/10/11 09:53:49;;;;;;;18.65;13.98;;;;;;;16.90;100.00;101426.28;5095264;28;20020;-36
2023/10/11 09:56:41;;;;;;;22.13;14.63;;;;;;;16.97;100.00;101432.34;5094361;28;20035;-36
2023/10/11 09:59:34;;;;;;;20.45;14.15;;;;;;;16.98;100.00;101429.38;5075631;28;20043;-36
2023/10/11 10:02:15;;;;;;;19.75;13.73;;;;;;;17.03;100.00;101428.59;5094234;28;20020;-36
2023/10/11 10:04:52;;;;;;;21.70;14.77;;;;;;;16.95;100.00;101424.41;5094801;28;20106;-36
2023/10/11 10:07:25;;;;;;;19.67;14.90;;;;;;;16.97;100.00;101424.13;5094452;28;20020;-36
2023/10/11 10:10:01;;;;;;;24.35;15.35;;;;;;;17.00;100.00;101426.38;5095259;28;20024;-35
2023/10/11 10:12:32;;;;;;;20.40;15.10;;;;;;;17.05;100.00;101434.59;5094686;28;20024;-36
2023/10/11 10:15:07;;;;;;;20.92;14.77;;;;;;;17.06;100.00;101421.75;5094327;28;20095;-35
2023/10/11 10:17:34;;;;;;;18.58;15.20;;;;;;;17.07;100.00;101424.22;5094778;28;20051;-36
2023/10/11 10:20:46;;;;;;;21.60;14.77;;;;;;;17.08;100.00;101430.50;5095001;28;20089;-36
2023/10/11 10:23:14;;;;;;;18.45;13.50;;;;;;;17.07;100.00;101426.97;5092191;28;20038;-36
2023/10/11 10:25:47;;;;;;;20.83;13.98;;;;;;;17.08;100.00;101423.16;5094480;28;20020;-36
2023/10/11 10:28:39;;;;;;;20.70;15.00;;;;;;;17.14;100.00;101426.75;5094099;28;20028;-36
2023/10/11 10:31:12;;;;;;;19.35;13.73;;;;;;;17.15;100.00;101422.94;5094415;28;20027;-36
2023/10/11 10:33:38;;;;;;;18.92;14.45;;;;;;;17.01;100.00;101403.41;5094046;28;20426;-36
2023/10/11 10:36:20;;;;;;;18.88;15.25;;;;;;;17.18;100.00;101423.25;5094360;28;20418;-36
2023/10/11 10:38:57;;;;;;;17.58;14.27;;;;;;;17.23;100.00;101427.94;5093579;28;20043;-36
2023/10/11 10:41:24;;;;;;;22.33;15.82;;;;;;;17.21;100.00;101438.28;5093969;28;20036;-37
2023/10/11 10:44:12;;;;;;;20.83;13.82;;;;;;;17.24;100.00;101427.66;5093600;28;20080;-36
2023/10/11 10:46:53;;;;;;;;;;;;;;;17.30;100.00;101441.38;5094618;28;20112;-36
2023/10/11 10:49:20;;;;;;;19.20;14.05;;;;;;;17.27;100.00;101447.34;5094654;28;19916;-36
2023/10/11 10:51:49;;;;;;;17.63;14.13;;;;;;;17.27;100.00;101439.16;5093852;28;20111;-36
2023/10/11 10:54:17;;;;;;;18.23;14.00;;;;;;;17.27;100.00;101434.50;5093553;28;20401;-36
2023/10/11 10:56:58;;;;;;;18.77;14.90;;;;;;;17.28;100.00;101433.44;5093491;28;20042;-36
2023/10/11 10:59:26;;;;;;;19.10;13.48;;;;;;;17.29;100.00;101434.25;5094003;28;20050;-36
2023/10/11 11:01:53;;;;;;;20.95;14.75;;;;;;;17.16;100.00;101414.47;5093960;28;20026;-36
2023/10/11 11:04:28;;;;;;;19.00;14.88;;;;;;;17.30;100.00;101441.38;5093623;28;20532;-36
2023/10/11 11:06:55;;;;;;;20.40;13.93;;;;;;;17.16;100.00;101411.75;5093674;28;20053;-36
2023/10/11 11:09:28;;;;;;;20.23;14.68;;;;;;;17.28;100.00;101425.25;5093301;28;20024;-36
2023/10/11 11:12:09;;;;;;;19.92;14.93;;;;;;;17.20;100.00;101404.66;5093940;28;20337;-36
2023/10/11 11:14:34;;;;;;;22.92;15.05;;;;;;;17.30;100.00;101411.31;5093586;28;20073;-36
2023/10/11 11:17:00;;;;;;;;;;;;;;;17.36;100.00;101415.72;5093999;28;20023;-36
2023/10/11 11:19:26;;;;;;;19.83;14.48;;;;;;;17.32;100.00;101420.06;5093239;28;19912;-36
2023/10/11 11:22:22;;;;;;;;;;;;;;;17.39;100.00;101431.59;5094241;28;20035;-36
2023/10/11 11:24:52;;;;;;;21.77;14.93;;;;;;;17.32;100.00;101422.78;5093297;28;19908;-36
2023/10/11 11:27:18;;;;;;;20.00;15.23;;;;;;;17.23;100.00;101397.88;5094329;28;20028;-35
2023/10/11 11:29:47;;;;;;;22.00;15.40;;;;;;;17.22;100.00;101397.03;5093983;28;20363;-36
2023/10/11 11:32:16;;;;;;;20.98;15.02;;;;;;;17.23;100.00;101385.03;5093768;28;20444;-36
2023/10/11 11:35:02;;;;;;;24.95;16.73;;;;;;;17.27;100.00;101387.22;5093408;28;20035;-36
2023/10/11 11:37:29;;;;;;;24.88;15.82;;;;;;;17.27;100.00;101379.84;5093159;28;20052;-36
2023/10/11 11:40:17;;;;;;;22.35;16.48;;;;;;;17.28;100.00;101384.25;5093327;28;20025;-36
2023/10/11 11:42:47;;;;;;;20.73;16.20;;;;;;;17.29;100.00;101369.47;5093235;28;20043;-36
2023/10/11 11:45:26;;;;;;;19.83;15.85;;;;;;;17.32;100.00;101379.88;5093346;28;20016;-37
2023/10/11 11:47:57;;;;;;;20.88;15.43;;;;;;;17.36;100.00;101381.00;5093871;28;20406;-36
2023/10/11 11:50:23;;;;;;;20.23;15.07;;;;;;;17.41;100.00;101366.53;5094110;28;20024;-37
2023/10/11 11:52:50;;;;;;;25.52;16.55;;;;;;;17.40;100.00;101345.75;5093465;28;20020;-37
2023/10/11 11:55:16;;;;;;;20.88;15.65;;;;;;;17.52;100.00;101346.41;5093274;28;20020;-37
2023/10/11 11:57:42;;;;;;;21.77;15.27;;;;;;;17.56;100.00;101343.94;5093232;28;20051;-37
2023/10/11 12:00:38;;;;;;;19.60;15.05;;;;;;;17.62;100.00;101321.84;5092885;28;20223;-36
2023/10/11 12:03:04;;;;;;;21.25;14.88;;;;;;;17.69;100.00;101307.91;5092753;28;20024;-36
2023/10/11 12:05:42;;;;;;;19.15;15.27;;;;;;;17.87;100.00;101318.41;5095867;28;20046;-37
2023/10/11 12:08:17;;;;;;;21.48;14.27;;;;;;;17.86;100.00;101326.88;5096764;28;20028;-37
2023/10/11 12:10:47;;;;;;;23.17;13.80;;;;;;;17.81;100.00;101338.59;5096807;28;20116;-37
2023/10/11 12:13:17;;;;;;;19.77;14.13;;;;;;;17.80;100.00;101336.97;5097161;28;20020;-37
2023/10/11 12:15:42;;;;;;;18.05;13.40;;;;;;;17.78;100.00;101327.41;5096393;28;20073;-37
2023/10/11 12:18:09;;;;;;;;;;;;;;;17.84;100.00;101331.78;5097317;28;20024;-36
2023/10/11 12:20:36;;;;;;;20.17;13.95;;;;;;;17.70;100.00;101326.78;5096587;28;20397;-36